Time;durP1;ratioP1;P1;durP2;ratioP2;P2;SDS_P1;SDS_P2;PMS_P1;PMS_P2;Temp;Humidity;BMP_temperature;BMP_pressure;BME280_temperature;BME280_humidity;BME280_pressure;Samples;Min_cycle;Max_cycle;Signal;HPM_P1;HPM_P2
2023/09/10 00:00:35;;;;;;;8.90;6.45;;;;;;;24.43;52.29;101573.53;16103613;19;130303;-55
2023/09/10 00:05:57;;;;;;;9.18;6.50;;;;;;;24.42;52.14;101569.06;16105446;19;130073;-56
2023/09/10 00:11:19;;;;;;;11.85;7.30;;;;;;;24.41;52.03;101562.63;16114327;19;129411;-53
2023/09/10 00:16:41;;;;;;;6.90;6.20;;;;;;;24.41;52.07;101558.97;16123054;19;129297;-57
2023/09/10 00:22:03;;;;;;;6.82;6.07;;;;;;;24.39;52.01;101569.59;16119711;19;130164;-53
2023/09/10 00:27:25;;;;;;;7.93;6.18;;;;;;;24.40;52.23;101560.09;16125507;19;130592;-55
2023/09/10 00:32:46;;;;;;;9.23;6.20;;;;;;;24.39;52.12;101564.00;16123424;19;130800;-48
2023/09/10 00:38:08;;;;;;;9.63;6.15;;;;;;;24.39;52.11;101569.59;16121404;19;130634;-53
2023/09/10 00:43:30;;;;;;;7.55;6.15;;;;;;;24.38;52.24;101562.31;16124295;19;130172;-54
2023/09/10 00:48:53;;;;;;;7.32;6.35;;;;;;;24.38;52.06;101551.13;16123538;19;130613;-53
2023/09/10 00:54:16;;;;;;;6.85;5.82;;;;;;;24.37;52.11;101555.06;16122394;19;129979;-55
2023/09/10 00:59:38;;;;;;;8.55;6.32;;;;;;;24.36;52.17;101565.38;16124455;19;130371;-53
2023/09/10 01:05:00;;;;;;;8.13;6.35;;;;;;;24.36;52.14;101567.34;16115807;19;131334;-55
2023/09/10 01:10:26;;;;;;;7.43;6.00;;;;;;;24.36;52.14;101575.75;16108774;19;129884;-56
2023/09/10 01:16:01;;;;;;;8.13;6.25;;;;;;;24.36;51.79;101565.38;16118396;19;131068;-54
2023/09/10 01:21:37;;;;;;;6.78;6.05;;;;;;;24.35;52.16;101574.88;16107518;19;134008;-56
2023/09/10 01:26:59;;;;;;;7.97;5.85;;;;;;;24.34;52.18;101569.56;16121106;19;130509;-56
2023/09/10 01:32:32;;;;;;;7.32;6.13;;;;;;;24.34;51.97;101570.41;16116156;19;130303;-57
2023/09/10 01:38:09;;;;;;;8.90;6.00;;;;;;;24.34;51.91;101567.59;16115511;19;130430;-54
2023/09/10 01:43:32;;;;;;;6.32;5.72;;;;;;;24.32;52.20;101569.81;16118569;19;130314;-56
2023/09/10 01:48:54;;;;;;;6.63;5.43;;;;;;;24.31;52.14;101581.28;16114754;19;130894;-56
2023/09/10 01:54:16;;;;;;;7.10;5.47;;;;;;;24.31;51.87;101579.31;16107833;19;129416;-57
2023/09/10 01:59:38;;;;;;;5.90;5.13;;;;;;;24.31;51.93;101578.50;16112664;19;129943;-54
2023/09/10 02:05:00;;;;;;;7.25;5.82;;;;;;;24.31;51.79;101586.88;16106845;19;130104;-55
2023/09/10 02:10:23;;;;;;;7.55;5.55;;;;;;;24.29;51.79;101581.56;16111167;19;129869;-55
2023/09/10 02:15:45;;;;;;;6.25;5.28;;;;;;;24.28;52.17;101585.47;16111726;19;130978;-54
2023/09/10 02:21:11;;;;;;;6.40;5.78;;;;;;;24.28;51.88;101591.06;16112753;19;129758;-49
2023/09/10 02:26:33;;;;;;;7.82;5.93;;;;;;;24.28;51.99;101596.66;16112210;19;131088;-54
2023/09/10 02:31:54;;;;;;;7.00;5.75;;;;;;;24.25;51.87;101586.84;16114713;19;129711;-54
2023/09/10 02:37:17;;;;;;;6.75;5.60;;;;;;;24.26;51.91;101587.69;16113167;19;129778;-54
2023/09/10 02:42:39;;;;;;;6.35;5.30;;;;;;;24.25;52.03;101594.41;16110055;19;129638;-54
2023/09/10 02:48:01;;;;;;;6.30;5.38;;;;;;;24.25;52.20;101595.22;16115917;19;129655;-54
2023/09/10 02:53:23;;;;;;;6.97;5.97;;;;;;;24.24;52.32;101596.38;16111633;19;130426;-55
2023/09/10 02:58:45;;;;;;;6.25;5.28;;;;;;;24.24;52.08;101604.75;16113167;19;130738;-51
2023/09/10 03:04:07;;;;;;;6.40;5.68;;;;;;;24.23;52.08;101600.25;16108178;19;130877;-55
2023/09/10 03:09:29;;;;;;;6.65;5.63;;;;;;;24.23;52.00;101607.75;16107162;19;129550;-54
2023/09/10 03:14:52;;;;;;;7.70;6.40;;;;;;;24.22;52.05;101586.50;16108022;19;130636;-57
2023/09/10 03:20:14;;;;;;;6.13;5.53;;;;;;;24.20;51.81;101592.38;16109602;19;130524;-55
2023/09/10 03:25:38;;;;;;;7.00;5.63;;;;;;;24.20;52.12;101599.91;16107867;19;131176;-53
2023/09/10 03:31:00;;;;;;;6.95;5.82;;;;;;;24.20;51.84;101592.38;16110866;19;130928;-56
2023/09/10 03:36:21;;;;;;;7.43;5.30;;;;;;;24.20;52.15;101591.53;16106709;19;131898;-56
2023/09/10 03:41:43;;;;;;;6.20;5.45;;;;;;;24.19;51.64;101582.31;16106604;19;134481;-55
2023/09/10 03:47:05;;;;;;;6.40;5.53;;;;;;;24.18;52.01;101585.38;16113945;19;130866;-56
2023/09/10 03:52:27;;;;;;;6.65;5.13;;;;;;;24.17;51.90;101578.94;16120134;19;131085;-55
2023/09/10 03:57:49;;;;;;;6.70;5.32;;;;;;;24.17;51.99;101576.13;16119398;19;131275;-54
2023/09/10 04:03:11;;;;;;;6.35;5.25;;;;;;;24.17;51.86;101569.72;16118168;19;130875;-54
2023/09/10 04:08:33;;;;;;;10.77;5.55;;;;;;;24.16;52.04;101568.84;16123630;19;129274;-54
2023/09/10 04:13:55;;;;;;;6.63;6.00;;;;;;;24.15;52.01;101574.72;16119197;19;130833;-55
2023/09/10 04:19:17;;;;;;;6.63;5.10;;;;;;;24.15;51.95;101567.16;16116935;19;129954;-57
2023/09/10 04:24:39;;;;;;;6.80;5.88;;;;;;;24.15;51.96;101578.34;16120496;19;131333;-58
2023/09/10 04:30:02;;;;;;;6.10;5.47;;;;;;;24.15;52.05;101581.16;16115163;19;131223;-56
2023/09/10 04:35:25;;;;;;;6.57;5.20;;;;;;;24.14;51.80;101579.47;16115230;19;130882;-56
2023/09/10 04:40:46;;;;;;;5.60;5.10;;;;;;;24.15;51.92;101583.13;16120523;19;131005;-57
2023/09/10 04:46:08;;;;;;;7.97;5.10;;;;;;;24.13;52.03;101583.38;16120146;19;134679;-57
2023/09/10 04:51:30;;;;;;;7.00;5.32;;;;;;;24.12;52.02;101576.94;16117704;19;130437;-56
2023/09/10 04:56:53;;;;;;;5.35;4.85;;;;;;;24.12;51.90;101581.72;16117043;19;130578;-57
2023/09/10 05:02:18;;;;;;;5.82;5.28;;;;;;;24.12;52.13;101576.13;16117271;19;130741;-50
2023/09/10 05:07:40;;;;;;;5.60;5.00;;;;;;;24.11;51.90;101574.44;16115796;19;129803;-57
2023/09/10 05:13:02;;;;;;;5.53;5.03;;;;;;;24.11;51.70;101580.03;16118196;19;129792;-57
2023/09/10 05:18:25;;;;;;;5.45;4.95;;;;;;;24.10;51.74;101581.94;16116474;19;129829;-57
2023/09/10 05:23:47;;;;;;;5.45;4.72;;;;;;;24.09;51.73;101580.28;16120532;19;131302;-57
2023/09/10 05:29:09;;;;;;;5.03;4.53;;;;;;;24.08;51.74;101586.13;16116442;19;131392;-58
2023/09/10 05:34:31;;;;;;;5.45;4.85;;;;;;;24.07;52.12;101585.28;16117182;19;129828;-59
2023/09/10 05:39:52;;;;;;;5.22;4.72;;;;;;;24.08;51.60;101586.13;16119742;19;129916;-57
2023/09/10 05:45:14;;;;;;;5.35;4.60;;;;;;;24.09;51.73;101593.41;16114315;19;129550;-57
2023/09/10 05:50:39;;;;;;;4.97;4.47;;;;;;;24.07;51.92;101601.22;16113049;19;130072;-56
2023/09/10 05:56:03;;;;;;;5.80;4.70;;;;;;;24.07;51.96;101595.63;16107457;19;129459;-58
2023/09/10 06:01:25;;;;;;;5.28;4.20;;;;;;;24.06;51.89;101591.97;16112866;19;130806;-58
2023/09/10 06:06:47;;;;;;;5.03;4.60;;;;;;;24.06;52.03;101599.53;16109945;19;129707;-58
2023/09/10 06:12:09;;;;;;;5.07;4.57;;;;;;;24.05;51.68;101612.69;16110563;19;131065;-57
2023/09/10 06:17:32;;;;;;;4.93;4.43;;;;;;;24.05;51.61;101625.78;16104842;19;132163;-58
2023/09/10 06:22:56;;;;;;;5.15;4.55;;;;;;;24.05;51.79;101620.22;16107258;19;130391;-54
2023/09/10 06:28:20;;;;;;;7.67;4.90;;;;;;;24.03;51.85;101628.00;16111425;19;130957;-54
2023/09/10 06:33:42;;;;;;;9.32;4.90;;;;;;;24.03;51.84;101628.00;16111134;19;131025;-57
2023/09/10 06:39:04;;;;;;;10.90;4.90;;;;;;;24.03;51.94;101634.47;16113611;19;131010;-58
2023/09/10 06:44:26;;;;;;;9.57;5.10;;;;;;;24.03;52.01;101640.06;16109908;19;130249;-59
2023/09/10 06:49:48;;;;;;;8.07;5.20;;;;;;;24.04;51.85;101647.31;16112535;19;133934;-58
2023/09/10 06:55:10;;;;;;;7.40;5.45;;;;;;;24.04;51.68;101647.31;16104393;19;131279;-58
2023/09/10 07:00:33;;;;;;;8.75;5.22;;;;;;;24.05;52.00;101642.56;16107617;19;129402;-58
2023/09/10 07:05:55;;;;;;;20.02;6.20;;;;;;;24.02;52.11;101643.09;16104988;19;130583;-58
2023/09/10 07:11:18;;;;;;;8.40;5.75;;;;;;;24.02;52.02;101643.94;16103050;19;130561;-57
2023/09/10 07:16:40;;;;;;;7.50;5.68;;;;;;;24.04;52.04;101640.88;16105325;19;130278;-58
2023/09/10 07:22:04;;;;;;;8.90;5.63;;;;;;;24.04;52.16;101647.31;16114616;19;129361;-58
2023/09/10 07:27:26;;;;;;;8.55;5.97;;;;;;;24.05;52.41;101653.75;16123461;19;130566;-57
2023/09/10 07:32:48;;;;;;;9.05;5.40;;;;;;;24.06;52.40;101658.22;16123175;19;130687;-54
2023/09/10 07:38:10;;;;;;;10.55;5.60;;;;;;;24.06;52.15;101661.84;16118050;19;129645;-58
2023/09/10 07:43:32;;;;;;;9.05;5.47;;;;;;;24.06;52.24;101655.44;16121283;19;129898;-57
2023/09/10 07:48:54;;;;;;;7.35;5.90;;;;;;;24.07;52.28;101657.94;16123362;19;132236;-58
2023/09/10 07:54:16;;;;;;;6.22;5.57;;;;;;;24.08;52.45;101670.81;16116101;19;131325;-57
2023/09/10 07:59:38;;;;;;;12.95;5.53;;;;;;;24.14;53.04;101668.09;16117856;19;131268;-56
2023/09/10 08:05:00;;;;;;;11.32;5.88;;;;;;;24.16;52.99;101668.66;16118095;19;129968;-56
2023/09/10 08:10:22;;;;;;;16.83;5.63;;;;;;;24.17;53.57;101657.22;16118096;19;130337;-56
2023/09/10 08:15:44;;;;;;;14.65;5.22;;;;;;;24.19;53.31;101666.19;16117495;19;130851;-55
2023/09/10 08:21:06;;;;;;;11.30;5.57;;;;;;;24.18;53.23;101664.50;16120693;19;129558;-57
2023/09/10 08:26:28;;;;;;;12.15;5.35;;;;;;;24.17;53.38;101662.78;16119134;19;130111;-59
2023/09/10 08:31:50;;;;;;;11.80;5.47;;;;;;;24.17;53.39;101671.19;16120600;19;130101;-55
2023/09/10 08:37:12;;;;;;;10.13;4.97;;;;;;;24.16;53.29;101672.28;16122240;19;129767;-59
2023/09/10 08:42:58;;;;;;;10.85;5.72;;;;;;;24.17;53.03;101673.97;16121891;19;129543;-58
2023/09/10 08:48:20;;;;;;;12.57;5.35;;;;;;;24.15;53.08;101676.19;16120105;19;129692;-57
2023/09/10 08:53:43;;;;;;;8.70;5.40;;;;;;;24.15;53.11;101667.81;16118097;19;129426;-59
2023/09/10 08:59:07;;;;;;;10.00;5.20;;;;;;;24.17;52.95;101673.16;16124724;19;130793;-59
2023/09/10 09:04:30;;;;;;;7.35;5.22;;;;;;;24.15;53.21;101659.41;16117311;19;130146;-57
2023/09/10 09:09:58;;;;;;;9.18;4.90;;;;;;;24.16;52.83;101663.91;16119975;19;130082;-59
2023/09/10 09:15:20;;;;;;;13.68;5.22;;;;;;;24.16;52.88;101665.88;16120686;19;129581;-58
2023/09/10 09:20:45;;;;;;;9.25;4.82;;;;;;;24.17;53.07;101661.97;16118978;19;130149;-59
2023/09/10 09:26:09;;;;;;;9.02;4.93;;;;;;;24.15;52.77;101659.41;16120403;19;129787;-58
2023/09/10 09:31:32;;;;;;;7.78;4.38;;;;;;;24.16;53.24;101661.09;16118711;19;130845;-58
2023/09/10 09:36:54;;;;;;;6.53;5.05;;;;;;;24.17;52.88;101650.78;16114228;19;130966;-58
2023/09/10 09:42:16;;;;;;;7.55;4.70;;;;;;;24.16;52.77;101638.75;16116940;19;129224;-59
2023/09/10 09:47:39;;;;;;;6.05;4.80;;;;;;;24.16;52.70;101644.34;16117876;19;130013;-58
2023/09/10 09:53:01;;;;;;;7.43;4.32;;;;;;;24.16;52.90;101649.94;16117584;19;130256;-58
2023/09/10 09:58:22;;;;;;;6.32;4.32;;;;;;;24.17;53.02;101651.63;16113292;19;129689;-58
2023/09/10 10:03:44;;;;;;;6.35;3.83;;;;;;;24.16;52.85;101643.50;16109705;19;130816;-57
2023/09/10 10:09:06;;;;;;;7.28;4.72;;;;;;;24.17;52.65;101648.81;16112040;19;129463;-59
2023/09/10 10:14:33;;;;;;;5.25;4.25;;;;;;;24.17;52.82;101648.81;16116225;19;133191;-59
2023/09/10 10:19:56;;;;;;;7.53;4.35;;;;;;;24.17;53.09;101645.19;16114543;19;131188;-58
2023/09/10 10:25:19;;;;;;;6.72;4.10;;;;;;;24.18;52.89;101642.13;16115346;19;129460;-59
2023/09/10 10:30:59;;;;;;;7.15;4.18;;;;;;;24.19;53.02;101638.22;16112560;19;129515;-57
2023/09/10 10:36:39;;;;;;;6.25;4.50;;;;;;;24.18;52.96;101630.94;16110213;19;129601;-58
2023/09/10 10:42:05;;;;;;;6.80;4.60;;;;;;;24.17;52.96;101634.84;16112969;19;130132;-58
2023/09/10 10:47:32;;;;;;;5.20;4.07;;;;;;;24.18;53.08;101619.75;16110536;19;130231;-59
2023/09/10 10:53:06;;;;;;;5.43;4.15;;;;;;;24.19;52.73;101615.00;16114548;19;130390;-58
2023/09/10 10:58:29;;;;;;;4.97;4.35;;;;;;;24.20;52.76;101611.94;16112460;19;129495;-57
2023/09/10 11:03:50;;;;;;;5.57;4.00;;;;;;;24.19;52.84;101607.47;16115104;19;130397;-57
2023/09/10 11:09:33;;;;;;;5.30;4.22;;;;;;;24.21;52.96;101599.66;16111718;19;130994;-55
2023/09/10 11:15:01;;;;;;;4.90;3.70;;;;;;;24.20;52.67;101600.75;16113350;19;129707;-59
2023/09/10 11:20:50;;;;;;;5.05;3.60;;;;;;;24.21;52.76;101596.88;16118294;19;129461;-60
2023/09/10 11:26:15;;;;;;;5.10;4.00;;;;;;;24.21;52.87;101596.88;16111923;19;130648;-60
2023/09/10 11:31:39;;;;;;;4.68;3.90;;;;;;;24.22;52.55;101592.09;16110743;19;129880;-60
2023/09/10 11:37:03;;;;;;;8.77;4.57;;;;;;;24.22;52.66;101594.91;16112604;19;131163;-59
2023/09/10 11:42:26;;;;;;;4.25;3.58;;;;;;;24.22;52.89;101592.97;16111983;19;129710;-59
2023/09/10 11:47:50;;;;;;;5.32;3.50;;;;;;;24.24;52.60;101590.78;16107681;19;130040;-58
2023/09/10 11:53:12;;;;;;;4.53;3.40;;;;;;;24.25;52.62;101591.59;16111031;19;130983;-57
2023/09/10 11:58:36;;;;;;;4.28;3.45;;;;;;;24.25;52.49;101591.59;16105007;19;129395;-58
2023/09/10 12:03:58;;;;;;;5.13;3.50;;;;;;;24.26;52.45;101588.53;16107268;19;129971;-59
2023/09/10 12:09:20;;;;;;;4.63;3.72;;;;;;;24.26;52.72;101577.34;16117606;19;129472;-54
2023/09/10 12:14:42;;;;;;;4.85;3.78;;;;;;;24.26;52.37;101577.34;16122893;19;130551;-53
2023/09/10 12:20:05;;;;;;;4.20;3.60;;;;;;;24.27;52.71;101573.44;16125832;19;129769;-58
2023/09/10 12:25:28;;;;;;;4.45;3.28;;;;;;;24.27;52.44;101567.84;16124476;19;129313;-57
2023/09/10 12:30:50;;;;;;;3.80;3.10;;;;;;;24.30;52.54;101565.63;16119092;19;130876;-58
2023/09/10 12:36:14;;;;;;;4.63;3.85;;;;;;;24.30;52.77;101565.63;16122887;19;130846;-58
2023/09/10 12:41:35;;;;;;;3.90;3.38;;;;;;;24.30;52.62;101560.91;16118468;19;129699;-56
2023/09/10 12:47:01;;;;;;;;;;;;;;;24.29;52.62;101555.56;16122010;19;130001;-59
2023/09/10 12:52:23;;;;;;;4.28;3.20;;;;;;;24.31;52.28;101550.53;16121401;19;129980;-58
2023/09/10 12:57:55;;;;;;;3.70;3.10;;;;;;;24.31;52.56;101544.94;16123038;19;131239;-58
2023/09/10 13:03:17;;;;;;;3.80;3.20;;;;;;;24.31;52.66;101540.19;16118381;19;130489;-58
2023/09/10 13:08:39;;;;;;;5.88;3.15;;;;;;;24.31;52.76;101544.94;16120441;19;131249;-58
2023/09/10 13:14:02;;;;;;;3.80;2.90;;;;;;;24.33;52.58;101537.13;16119833;19;130633;-58
2023/09/10 13:19:24;;;;;;;2.88;2.63;;;;;;;24.33;52.64;101531.53;16122186;19;129604;-58
2023/09/10 13:24:46;;;;;;;3.97;3.05;;;;;;;24.33;52.53;101531.53;16121653;19;130423;-57
2023/09/10 13:30:08;;;;;;;3.28;2.97;;;;;;;24.32;52.46;101525.09;16120778;19;131271;-58
2023/09/10 13:35:32;;;;;;;4.50;3.28;;;;;;;24.34;52.53;101528.47;16121995;19;131025;-59
2023/09/10 13:40:56;;;;;;;3.20;3.00;;;;;;;24.34;52.70;101522.03;16117050;19;129832;-57
2023/09/10 13:46:18;;;;;;;5.53;2.90;;;;;;;24.33;52.85;101520.34;16112835;19;130466;-59
2023/09/10 13:51:40;;;;;;;4.25;3.30;;;;;;;24.35;52.83;101524.56;16117961;19;129794;-57
2023/09/10 13:57:02;;;;;;;3.15;2.70;;;;;;;24.36;52.48;101511.44;16119076;19;131623;-58
2023/09/10 14:02:24;;;;;;;4.22;3.13;;;;;;;24.36;52.51;101509.47;16115996;19;129786;-56
2023/09/10 14:07:47;;;;;;;3.25;2.75;;;;;;;24.36;52.66;101508.63;16113128;19;132025;-55
2023/09/10 14:13:08;;;;;;;2.90;2.70;;;;;;;24.36;52.52;101508.63;16115110;19;134019;-57
2023/09/10 14:18:32;;;;;;;3.03;2.70;;;;;;;24.37;52.79;101490.75;16108333;19;130349;-57
2023/09/10 14:23:54;;;;;;;3.65;2.90;;;;;;;24.37;52.84;101493.53;16116200;19;129500;-57
2023/09/10 14:29:19;;;;;;;4.30;2.90;;;;;;;24.36;52.63;101489.88;16114442;19;129903;-56
2023/09/10 14:34:42;;;;;;;4.75;2.65;;;;;;;24.36;52.42;101484.28;16119903;19;130321;-55
2023/09/10 14:40:05;;;;;;;3.28;2.80;;;;;;;24.38;52.51;101484.00;16124320;19;129965;-58
2023/09/10 14:45:26;;;;;;;2.92;2.47;;;;;;;24.38;52.54;101489.59;16124287;19;131056;-55
2023/09/10 14:50:49;;;;;;;2.58;2.38;;;;;;;24.38;52.62;101478.41;16125232;19;134225;-56
2023/09/10 14:56:10;;;;;;;3.65;2.40;;;;;;;24.38;52.49;101478.41;16125734;19;129635;-52
2023/09/10 15:01:33;;;;;;;3.65;2.70;;;;;;;24.38;52.41;101473.69;16125928;19;129793;-50
2023/09/10 15:06:55;;;;;;;5.95;2.40;;;;;;;24.38;52.47;101470.03;16123826;19;132266;-57
2023/09/10 15:12:17;;;;;;;3.70;2.67;;;;;;;24.40;52.59;101470.59;16124794;19;129499;-56
2023/09/10 15:17:39;;;;;;;2.50;2.30;;;;;;;24.40;52.73;101465.00;16123593;19;130284;-55
2023/09/10 15:23:01;;;;;;;2.70;2.45;;;;;;;24.40;52.45;101456.63;16121790;19;129192;-56
2023/09/10 15:28:23;;;;;;;4.18;2.60;;;;;;;24.40;52.62;101449.09;16122219;19;130473;-55
2023/09/10 15:33:45;;;;;;;3.28;2.42;;;;;;;24.41;52.43;101445.19;16119420;19;129492;-54
2023/09/10 15:39:07;;;;;;;3.75;2.50;;;;;;;24.42;52.63;101446.00;16117909;19;130492;-55
2023/09/10 15:44:29;;;;;;;3.22;2.30;;;;;;;24.42;52.43;101441.28;16124406;19;129719;-54
2023/09/10 15:49:51;;;;;;;3.47;2.60;;;;;;;24.41;52.73;101442.38;16127564;19;129730;-55
2023/09/10 15:55:13;;;;;;;2.40;2.20;;;;;;;24.42;52.44;101446.00;16124188;19;128899;-54
2023/09/10 16:00:35;;;;;;;4.28;2.50;;;;;;;24.42;52.52;101429.22;16126120;19;129411;-54
2023/09/10 16:05:58;;;;;;;2.50;2.30;;;;;;;24.43;52.27;101433.72;16126067;19;131329;-57
2023/09/10 16:11:20;;;;;;;3.05;2.17;;;;;;;24.43;52.70;101426.16;16125328;19;129226;-56
2023/09/10 16:16:42;;;;;;;3.78;2.38;;;;;;;24.42;52.32;101418.91;16127207;19;130047;-54
2023/09/10 16:22:04;;;;;;;2.47;2.22;;;;;;;24.45;52.46;101416.63;16123404;19;134418;-57
2023/09/10 16:27:28;;;;;;;2.25;1.98;;;;;;;24.43;52.22;101414.97;16124083;19;130899;-54
2023/09/10 16:32:50;;;;;;;3.22;2.60;;;;;;;24.44;52.53;101413.03;16122215;19;129858;-54
2023/09/10 16:38:12;;;;;;;3.35;2.38;;;;;;;24.45;52.45;101411.03;16116445;19;131118;-55
2023/09/10 16:43:34;;;;;;;3.40;2.17;;;;;;;24.45;52.12;101411.91;16117823;19;131171;-57
2023/09/10 16:48:56;;;;;;;2.70;2.45;;;;;;;24.45;52.43;101417.50;16120698;19;130024;-56
2023/09/10 16:54:19;;;;;;;2.30;2.10;;;;;;;24.45;52.25;101411.91;16116444;19;130286;-57
2023/09/10 16:59:47;;;;;;;3.13;2.13;;;;;;;24.46;52.43;101401.53;16120666;19;130157;-56
2023/09/10 17:05:09;;;;;;;3.30;2.17;;;;;;;24.45;52.18;101395.13;16119239;19;130445;-56
2023/09/10 17:10:31;;;;;;;2.75;2.30;;;;;;;24.46;52.41;101399.59;16117964;19;129886;-57
2023/09/10 17:15:59;;;;;;;3.13;2.40;;;;;;;24.46;52.37;101395.94;16116347;19;129598;-57
2023/09/10 17:21:21;;;;;;;2.40;2.05;;;;;;;24.47;52.37;101398.50;16114633;19;129687;-56
2023/09/10 17:26:43;;;;;;;2.42;2.17;;;;;;;24.47;52.45;101390.09;16114672;19;130769;-58
2023/09/10 17:32:05;;;;;;;3.33;2.35;;;;;;;24.46;52.23;101396.81;16116685;19;131830;-56
2023/09/10 17:37:27;;;;;;;3.63;2.40;;;;;;;24.48;52.48;101396.53;16117406;19;129554;-52
2023/09/10 17:42:49;;;;;;;2.90;2.30;;;;;;;24.47;52.33;101392.91;16114775;19;130387;-59
2023/09/10 17:48:11;;;;;;;3.22;2.25;;;;;;;24.48;52.44;101396.53;16115778;19;131278;-56
2023/09/10 17:53:33;;;;;;;3.30;2.50;;;;;;;24.48;52.44;101405.78;16113354;19;131025;-54
2023/09/10 17:58:56;;;;;;;2.60;2.40;;;;;;;24.48;52.62;101397.38;16114777;19;130982;-55
2023/09/10 18:04:20;;;;;;;2.33;2.13;;;;;;;24.48;52.33;101405.78;16112173;19;130162;-52
2023/09/10 18:09:43;;;;;;;3.05;2.30;;;;;;;24.49;52.69;101413.03;16111973;19;129607;-57
2023/09/10 18:15:06;;;;;;;3.72;2.63;;;;;;;24.48;52.25;101411.38;16111865;19;129840;-56
2023/09/10 18:20:29;;;;;;;2.20;2.00;;;;;;;24.49;52.45;101415.84;16114700;19;129787;-56
2023/09/10 18:25:51;;;;;;;2.83;2.40;;;;;;;24.48;52.54;101408.56;16102509;19;130475;-54
2023/09/10 18:31:13;;;;;;;4.50;2.30;;;;;;;24.48;52.60;101418.91;16108425;19;129701;-60
2023/09/10 18:36:35;;;;;;;2.83;2.40;;;;;;;24.48;52.57;101416.09;16107848;19;131524;-58
2023/09/10 18:41:57;;;;;;;3.25;2.53;;;;;;;24.48;52.27;101422.56;16110427;19;130500;-56
2023/09/10 18:47:19;;;;;;;4.68;2.30;;;;;;;24.49;52.43;101415.84;16111761;19;129450;-50
2023/09/10 18:52:41;;;;;;;4.70;2.63;;;;;;;24.52;52.72;101412.47;16116504;19;130009;-54
2023/09/10 18:58:03;;;;;;;3.72;2.58;;;;;;;24.57;52.33;101420.88;16110210;19;129366;-54
2023/09/10 19:03:25;;;;;;;2.65;2.45;;;;;;;24.61;52.52;101420.34;16114434;19;129771;-55
2023/09/10 19:08:47;;;;;;;3.55;2.38;;;;;;;24.65;52.51;101416.72;16117234;19;130186;-55
2023/09/10 19:14:10;;;;;;;5.28;2.53;;;;;;;24.68;52.72;101415.31;16116685;19;131150;-57
2023/09/10 19:19:32;;;;;;;3.13;2.50;;;;;;;24.71;52.56;101420.38;16143247;19;129402;-58
2023/09/10 19:24:54;;;;;;;7.28;2.50;;;;;;;24.73;52.84;101418.16;16147920;19;130112;-56
2023/09/10 19:30:17;;;;;;;6.55;3.08;;;;;;;24.76;52.91;101417.56;16144557;19;129439;-57
2023/09/10 19:35:39;;;;;;;4.45;2.80;;;;;;;24.81;52.94;101413.94;16143095;19;130275;-53
2023/09/10 19:41:02;;;;;;;6.20;2.38;;;;;;;24.84;52.93;101414.25;16140504;19;130526;-55
2023/09/10 19:46:25;;;;;;;5.53;2.45;;;;;;;24.87;52.90;101412.84;16142240;19;130316;-55
2023/09/10 19:51:47;;;;;;;4.15;2.50;;;;;;;24.90;53.12;101412.31;16144593;19;131748;-54
2023/09/10 19:57:09;;;;;;;6.05;3.00;;;;;;;24.93;52.96;101408.13;16143509;19;133933;-54
2023/09/10 20:02:31;;;;;;;2.55;2.35;;;;;;;24.96;52.87;101421.56;16138688;19;130814;-53
2023/09/10 20:07:53;;;;;;;3.90;2.55;;;;;;;24.97;52.93;101418.47;16138436;19;130205;-56
2023/09/10 20:13:15;;;;;;;5.65;2.60;;;;;;;25.00;53.00;101419.88;16142613;19;129485;-54
2023/09/10 20:18:37;;;;;;;6.80;2.97;;;;;;;25.00;52.55;101414.28;16140196;19;129762;-59
2023/09/10 20:23:59;;;;;;;5.38;3.05;;;;;;;25.00;52.66;101412.31;16140863;19;129687;-60
2023/09/10 20:29:21;;;;;;;11.23;2.80;;;;;;;24.98;52.67;101406.16;16127786;19;129387;-59
2023/09/10 20:34:45;;;;;;;9.32;3.08;;;;;;;24.97;52.93;101412.06;16120610;19;130801;-60
2023/09/10 20:40:08;;;;;;;8.25;2.70;;;;;;;24.98;52.54;101408.13;16120040;19;131822;-60
2023/09/10 20:45:31;;;;;;;11.98;2.92;;;;;;;24.97;52.75;101406.47;16118304;19;130365;-60
2023/09/10 20:50:53;;;;;;;5.25;2.88;;;;;;;24.97;52.96;101395.25;16116929;19;130175;-60
2023/09/10 20:56:15;;;;;;;6.70;2.90;;;;;;;24.97;53.21;101406.47;16118212;19;129357;-59
2023/09/10 21:01:37;;;;;;;8.07;2.88;;;;;;;24.97;52.95;101407.28;16118693;19;130531;-59
2023/09/10 21:06:59;;;;;;;6.95;2.90;;;;;;;24.98;52.94;101408.13;16119150;19;129580;-61
2023/09/10 21:12:21;;;;;;;7.97;2.90;;;;;;;24.96;53.17;101393.56;16119972;19;130897;-59
2023/09/10 21:17:43;;;;;;;7.90;3.50;;;;;;;24.94;53.07;101381.81;16119467;19;129549;-61
2023/09/10 21:23:05;;;;;;;6.78;3.60;;;;;;;24.92;53.02;101382.09;16121645;19;129179;-60
2023/09/10 21:28:27;;;;;;;7.28;3.45;;;;;;;24.90;52.80;101375.09;16121424;19;129919;-61
2023/09/10 21:33:49;;;;;;;9.48;3.47;;;;;;;24.87;52.75;101374.47;16119363;19;133696;-60
2023/09/10 21:39:11;;;;;;;7.65;3.10;;;;;;;24.84;52.59;101377.88;16114374;19;130817;-61
2023/09/10 21:44:33;;;;;;;5.22;3.30;;;;;;;24.84;52.72;101365.81;16118580;19;129717;-61
2023/09/10 21:49:55;;;;;;;9.23;3.35;;;;;;;24.81;52.86;101364.41;16120528;19;130791;-61
2023/09/10 21:55:17;;;;;;;8.25;3.35;;;;;;;24.81;53.13;101364.41;16117495;19;129847;-61
2023/09/10 22:00:39;;;;;;;6.78;3.15;;;;;;;24.79;53.00;101360.22;16120538;19;130219;-61
2023/09/10 22:06:01;;;;;;;7.38;3.35;;;;;;;24.78;52.87;101367.78;16112959;19;129760;-61
2023/09/10 22:11:23;;;;;;;8.73;3.10;;;;;;;24.77;52.78;101363.28;16113141;19;132566;-61
2023/09/10 22:16:45;;;;;;;6.40;2.95;;;;;;;24.76;52.93;101366.38;16117049;19;130574;-61
2023/09/10 22:22:07;;;;;;;3.53;2.65;;;;;;;24.75;52.76;101348.72;16116914;19;130370;-59
2023/09/10 22:27:28;;;;;;;5.82;3.20;;;;;;;24.74;52.81;101335.84;16117449;19;129982;-61
2023/09/10 22:32:50;;;;;;;5.80;2.90;;;;;;;24.72;53.19;101327.75;16104527;19;131486;-61
2023/09/10 22:38:13;;;;;;;7.30;3.22;;;;;;;24.72;53.12;101321.34;16111167;19;130243;-61
2023/09/10 22:43:34;;;;;;;6.25;3.28;;;;;;;24.71;53.10;101325.25;16114475;19;132341;-61
2023/09/10 22:48:57;;;;;;;8.15;3.35;;;;;;;24.69;53.03;101319.91;16114463;19;129527;-61
2023/09/10 22:54:18;;;;;;;7.22;3.20;;;;;;;24.69;53.13;101321.88;16110338;19;129327;-61
2023/09/10 22:59:40;;;;;;;4.68;3.30;;;;;;;24.69;53.27;101321.88;16113618;19;129444;-63
2023/09/10 23:05:02;;;;;;;4.60;3.20;;;;;;;24.68;53.03;101311.81;16110338;19;129958;-61
2023/09/10 23:10:25;;;;;;;5.85;3.22;;;;;;;24.67;53.33;101312.94;16110508;19;131329;-60
2023/09/10 23:15:47;;;;;;;6.13;3.33;;;;;;;24.66;53.03;101317.69;16113292;19;129532;-61
2023/09/10 23:21:09;;;;;;;4.15;2.72;;;;;;;24.65;53.06;101312.34;16111439;19;129042;-61
2023/09/10 23:26:31;;;;;;;5.82;3.00;;;;;;;24.65;53.10;101309.56;16111616;19;132007;-61
2023/09/10 23:31:53;;;;;;;4.45;2.95;;;;;;;24.64;53.11;101310.69;16111662;19;130348;-63
2023/09/10 23:37:15;;;;;;;4.95;3.60;;;;;;;24.64;53.51;101307.88;16107949;19;129639;-61
2023/09/10 23:42:38;;;;;;;3.22;2.70;;;;;;;24.63;53.09;101311.78;16109913;19;129430;-62
2023/09/10 23:48:00;;;;;;;3.28;2.70;;;;;;;24.63;53.35;101311.78;16111885;19;131010;-63
2023/09/10 23:53:23;;;;;;;4.50;2.70;;;;;;;24.62;53.39;101310.97;16110779;19;129402;-62
2023/09/10 23:58:46;;;;;;;3.15;2.80;;;;;;;24.61;53.31;101312.09;16110176;19;129981;-62
